sensor_id;sensor_type;location;lat;lon;timestamp;pressure;altitude;pressure_sealevel;temperature
70668;BMP280;58242;51.250;-1.118;2022-09-09T00:01:29;98930.38;;;22.10
70668;BMP280;58242;51.250;-1.118;2022-09-09T00:04:19;98932.34;;;22.09
70668;BMP280;58242;51.250;-1.118;2022-09-09T00:07:07;98929.28;;;22.07
70668;BMP280;58242;51.250;-1.118;2022-09-09T00:09:42;98932.09;;;22.04
70668;BMP280;58242;51.250;-1.118;2022-09-09T00:15:17;98941.34;;;22.06
70668;BMP280;58242;51.250;-1.118;2022-09-09T00:18:13;98941.72;;;22.08
70668;BMP280;58242;51.250;-1.118;2022-09-09T00:20:48;98945.16;;;22.09
70668;BMP280;58242;51.250;-1.118;2022-09-09T00:23:28;98942.03;;;22.10
70668;BMP280;58242;51.250;-1.118;2022-09-09T00:28:56;98941.72;;;22.08
70668;BMP280;58242;51.250;-1.118;2022-09-09T00:31:27;98946.38;;;22.08
70668;BMP280;58242;51.250;-1.118;2022-09-09T00:33:54;98933.56;;;22.08
70668;BMP280;58242;51.250;-1.118;2022-09-09T00:36:23;98942.03;;;22.10
70668;BMP280;58242;51.250;-1.118;2022-09-09T00:38:55;98942.81;;;22.11
70668;BMP280;58242;51.250;-1.118;2022-09-09T00:44:26;98942.13;;;22.07
70668;BMP280;58242;51.250;-1.118;2022-09-09T00:49:32;98944.75;;;22.10
70668;BMP280;58242;51.250;-1.118;2022-09-09T00:55:14;98943.66;;;22.08
70668;BMP280;58242;51.250;-1.118;2022-09-09T00:57:41;98944.84;;;22.07
70668;BMP280;58242;51.250;-1.118;2022-09-09T01:10:59;98940.25;;;22.04
70668;BMP280;58242;51.250;-1.118;2022-09-09T01:13:29;98945.25;;;22.05
70668;BMP280;58242;51.250;-1.118;2022-09-09T01:15:57;98937.44;;;22.07
70668;BMP280;58242;51.250;-1.118;2022-09-09T01:18:26;98943.56;;;21.95
70668;BMP280;58242;51.250;-1.118;2022-09-09T01:21:27;98944.31;;;21.96
70668;BMP280;58242;51.250;-1.118;2022-09-09T01:24:36;98948.59;;;21.97
70668;BMP280;58242;51.250;-1.118;2022-09-09T01:27:05;98942.38;;;21.96
70668;BMP280;58242;51.250;-1.118;2022-09-09T01:29:32;98947.47;;;21.94
70668;BMP280;58242;51.250;-1.118;2022-09-09T01:34:25;98946.34;;;21.92
70668;BMP280;58242;51.250;-1.118;2022-09-09T01:36:53;98947.97;;;21.90
70668;BMP280;58242;51.250;-1.118;2022-09-09T01:39:21;98940.22;;;21.88
70668;BMP280;58242;51.250;-1.118;2022-09-09T01:41:46;98954.59;;;21.89
70668;BMP280;58242;51.250;-1.118;2022-09-09T01:44:12;98950.34;;;21.88
70668;BMP280;58242;51.250;-1.118;2022-09-09T01:46:38;98953.84;;;21.88
70668;BMP280;58242;51.250;-1.118;2022-09-09T01:49:05;98963.94;;;21.88
70668;BMP280;58242;51.250;-1.118;2022-09-09T01:51:32;98969.47;;;21.84
70668;BMP280;58242;51.250;-1.118;2022-09-09T01:53:58;98964.03;;;21.84
70668;BMP280;58242;51.250;-1.118;2022-09-09T01:59:24;98966.44;;;21.79
70668;BMP280;58242;51.250;-1.118;2022-09-09T02:02:13;98968.47;;;21.75
70668;BMP280;58242;51.250;-1.118;2022-09-09T02:04:43;98958.34;;;21.76
70668;BMP280;58242;51.250;-1.118;2022-09-09T02:09:52;98976.78;;;21.68
70668;BMP280;58242;51.250;-1.118;2022-09-09T02:12:23;98985.72;;;21.69
70668;BMP280;58242;51.250;-1.118;2022-09-09T02:14:55;98976.00;;;21.68
70668;BMP280;58242;51.250;-1.118;2022-09-09T02:17:27;98974.06;;;21.68
70668;BMP280;58242;51.250;-1.118;2022-09-09T02:20:05;98969.47;;;21.65
70668;BMP280;58242;51.250;-1.118;2022-09-09T02:22:33;98968.44;;;21.59
70668;BMP280;58242;51.250;-1.118;2022-09-09T02:25:01;98963.06;;;21.56
70668;BMP280;58242;51.250;-1.118;2022-09-09T02:27:27;98967.06;;;21.52
70668;BMP280;58242;51.250;-1.118;2022-09-09T02:29:54;98969.06;;;21.48
70668;BMP280;58242;51.250;-1.118;2022-09-09T02:32:23;98973.06;;;21.43
70668;BMP280;58242;51.250;-1.118;2022-09-09T02:34:55;98975.47;;;21.38
70668;BMP280;58242;51.250;-1.118;2022-09-09T02:37:26;98985.31;;;21.32
70668;BMP280;58242;51.250;-1.118;2022-09-09T02:39:54;98990.13;;;21.25
70668;BMP280;58242;51.250;-1.118;2022-09-09T02:42:19;98995.28;;;21.20
70668;BMP280;58242;51.250;-1.118;2022-09-09T02:44:44;98998.38;;;21.18
70668;BMP280;58242;51.250;-1.118;2022-09-09T02:50:12;98999.53;;;21.21
70668;BMP280;58242;51.250;-1.118;2022-09-09T02:52:44;98995.56;;;21.25
70668;BMP280;58242;51.250;-1.118;2022-09-09T02:55:29;98998.97;;;21.29
70668;BMP280;58242;51.250;-1.118;2022-09-09T02:58:01;98988.81;;;21.33
70668;BMP280;58242;51.250;-1.118;2022-09-09T03:00:29;99003.50;;;21.35
70668;BMP280;58242;51.250;-1.118;2022-09-09T03:02:56;98998.84;;;21.36
70668;BMP280;58242;51.250;-1.118;2022-09-09T03:05:21;98997.31;;;21.35
70668;BMP280;58242;51.250;-1.118;2022-09-09T03:07:47;99006.22;;;21.35
70668;BMP280;58242;51.250;-1.118;2022-09-09T03:10:12;99003.91;;;21.34
70668;BMP280;58242;51.250;-1.118;2022-09-09T03:12:38;99010.13;;;21.34
70668;BMP280;58242;51.250;-1.118;2022-09-09T03:15:05;99009.72;;;21.36
70668;BMP280;58242;51.250;-1.118;2022-09-09T03:17:31;99013.22;;;21.36
70668;BMP280;58242;51.250;-1.118;2022-09-09T03:19:56;99015.91;;;21.36
70668;BMP280;58242;51.250;-1.118;2022-09-09T03:22:24;99010.50;;;21.36
70668;BMP280;58242;51.250;-1.118;2022-09-09T03:24:50;99010.13;;;21.34
70668;BMP280;58242;51.250;-1.118;2022-09-09T03:27:16;99019.44;;;21.33
70668;BMP280;58242;51.250;-1.118;2022-09-09T03:29:42;99020.72;;;21.29
70668;BMP280;58242;51.250;-1.118;2022-09-09T03:32:08;99018.41;;;21.27
70668;BMP280;58242;51.250;-1.118;2022-09-09T03:34:35;99024.63;;;21.28
70668;BMP280;58242;51.250;-1.118;2022-09-09T03:37:00;99026.94;;;21.29
70668;BMP280;58242;51.250;-1.118;2022-09-09T03:39:25;99030.75;;;21.32
70668;BMP280;58242;51.250;-1.118;2022-09-09T03:41:51;99023.38;;;21.32
70668;BMP280;58242;51.250;-1.118;2022-09-09T03:44:16;99035.03;;;21.33
70668;BMP280;58242;51.250;-1.118;2022-09-09T03:46:41;99039.25;;;21.34
70668;BMP280;58242;51.250;-1.118;2022-09-09T03:49:07;99041.56;;;21.35
70668;BMP280;58242;51.250;-1.118;2022-09-09T03:51:33;99039.63;;;21.36
70668;BMP280;58242;51.250;-1.118;2022-09-09T03:54:01;99046.94;;;21.39
70668;BMP280;58242;51.250;-1.118;2022-09-09T03:56:26;99044.22;;;21.39
70668;BMP280;58242;51.250;-1.118;2022-09-09T03:58:52;99048.81;;;21.42
70668;BMP280;58242;51.250;-1.118;2022-09-09T04:01:17;99049.19;;;21.43
70668;BMP280;58242;51.250;-1.118;2022-09-09T04:03:43;99050.28;;;21.46
70668;BMP280;58242;51.250;-1.118;2022-09-09T04:06:10;99056.50;;;21.46
70668;BMP280;58242;51.250;-1.118;2022-09-09T04:08:38;99050.28;;;21.46
70668;BMP280;58242;51.250;-1.118;2022-09-09T04:11:04;99061.53;;;21.48
70668;BMP280;58242;51.250;-1.118;2022-09-09T04:13:32;99061.53;;;21.48
70668;BMP280;58242;51.250;-1.118;2022-09-09T04:15:59;99059.16;;;21.50
70668;BMP280;58242;51.250;-1.118;2022-09-09T04:18:26;99066.13;;;21.51
70668;BMP280;58242;51.250;-1.118;2022-09-09T04:20:53;99060.69;;;21.51
70668;BMP280;58242;51.250;-1.118;2022-09-09T04:23:19;99058.72;;;21.51
70668;BMP280;58242;51.250;-1.118;2022-09-09T04:25:52;99057.97;;;21.51
70668;BMP280;58242;51.250;-1.118;2022-09-09T04:28:21;99064.94;;;21.52
70668;BMP280;58242;51.250;-1.118;2022-09-09T04:30:46;99066.53;;;21.49
70668;BMP280;58242;51.250;-1.118;2022-09-09T04:33:13;99068.84;;;21.51
70668;BMP280;58242;51.250;-1.118;2022-09-09T04:35:39;99069.31;;;21.46
70668;BMP280;58242;51.250;-1.118;2022-09-09T04:38:08;99074.91;;;21.39
70668;BMP280;58242;51.250;-1.118;2022-09-09T04:40:34;99073.06;;;21.33
70668;BMP280;58242;51.250;-1.118;2022-09-09T04:43:01;99077.44;;;21.27
70668;BMP280;58242;51.250;-1.118;2022-09-09T04:45:28;99079.47;;;21.23
70668;BMP280;58242;51.250;-1.118;2022-09-09T04:47:54;99085.31;;;21.22
70668;BMP280;58242;51.250;-1.118;2022-09-09T04:50:20;99087.59;;;21.23
70668;BMP280;58242;51.250;-1.118;2022-09-09T04:52:45;99089.94;;;21.25
70668;BMP280;58242;51.250;-1.118;2022-09-09T04:55:11;99086.78;;;21.26
70668;BMP280;58242;51.250;-1.118;2022-09-09T04:57:37;99085.97;;;21.29
70668;BMP280;58242;51.250;-1.118;2022-09-09T05:00:03;99095.22;;;21.31
70668;BMP280;58242;51.250;-1.118;2022-09-09T05:02:29;99099.06;;;21.34
70668;BMP280;58242;51.250;-1.118;2022-09-09T05:04:55;99097.09;;;21.34
70668;BMP280;58242;51.250;-1.118;2022-09-09T05:07:21;99106.75;;;21.39
70668;BMP280;58242;51.250;-1.118;2022-09-09T05:09:46;99111.34;;;21.42
70668;BMP280;58242;51.250;-1.118;2022-09-09T05:12:13;99105.84;;;21.45
70668;BMP280;58242;51.250;-1.118;2022-09-09T05:14:38;99104.25;;;21.47
70668;BMP280;58242;51.250;-1.118;2022-09-09T05:17:05;99112.41;;;21.47
70668;BMP280;58242;51.250;-1.118;2022-09-09T05:19:30;99117.03;;;21.50
70668;BMP280;58242;51.250;-1.118;2022-09-09T05:21:56;99115.06;;;21.51
70668;BMP280;58242;51.250;-1.118;2022-09-09T05:24:22;99119.34;;;21.52
70668;BMP280;58242;51.250;-1.118;2022-09-09T05:26:48;99127.50;;;21.52
70668;BMP280;58242;51.250;-1.118;2022-09-09T05:29:13;99126.66;;;21.55
70668;BMP280;58242;51.250;-1.118;2022-09-09T05:31:39;99124.69;;;21.55
70668;BMP280;58242;51.250;-1.118;2022-09-09T05:34:04;99127.00;;;21.57
70668;BMP280;58242;51.250;-1.118;2022-09-09T05:36:29;99128.53;;;21.58
70668;BMP280;58242;51.250;-1.118;2022-09-09T05:38:55;99133.97;;;21.58
70668;BMP280;58242;51.250;-1.118;2022-09-09T05:41:20;99133.97;;;21.58
70668;BMP280;58242;51.250;-1.118;2022-09-09T05:43:48;99123.47;;;21.59
70668;BMP280;58242;51.250;-1.118;2022-09-09T05:46:16;99125.75;;;21.61
70668;BMP280;58242;51.250;-1.118;2022-09-09T05:48:44;99132.34;;;21.60
70668;BMP280;58242;51.250;-1.118;2022-09-09T05:51:12;99134.09;;;21.51
70668;BMP280;58242;51.250;-1.118;2022-09-09T05:53:38;99140.31;;;21.51
70668;BMP280;58242;51.250;-1.118;2022-09-09T05:56:05;99147.69;;;21.51
70668;BMP280;58242;51.250;-1.118;2022-09-09T05:58:34;99149.66;;;21.50
70668;BMP280;58242;51.250;-1.118;2022-09-09T06:01:04;99143.09;;;21.48
70668;BMP280;58242;51.250;-1.118;2022-09-09T06:03:30;99155.16;;;21.47
70668;BMP280;58242;51.250;-1.118;2022-09-09T06:06:03;99153.19;;;21.47
70668;BMP280;58242;51.250;-1.118;2022-09-09T06:08:36;99159.03;;;21.46
70668;BMP280;58242;51.250;-1.118;2022-09-09T06:13:38;99158.28;;;21.45
70668;BMP280;58242;51.250;-1.118;2022-09-09T06:16:04;99162.19;;;21.44
70668;BMP280;58242;51.250;-1.118;2022-09-09T06:18:30;99157.50;;;21.45
70668;BMP280;58242;51.250;-1.118;2022-09-09T06:21:06;99163.38;;;21.43
70668;BMP280;58242;51.250;-1.118;2022-09-09T06:23:33;99168.03;;;21.43
70668;BMP280;58242;51.250;-1.118;2022-09-09T06:28:27;99176.66;;;21.38
70668;BMP280;58242;51.250;-1.118;2022-09-09T06:31:03;99175.47;;;21.39
70668;BMP280;58242;51.250;-1.118;2022-09-09T06:33:37;99178.97;;;21.40
70668;BMP280;58242;51.250;-1.118;2022-09-09T06:36:07;99182.03;;;21.42
70668;BMP280;58242;51.250;-1.118;2022-09-09T06:38:35;99184.09;;;21.34
70668;BMP280;58242;51.250;-1.118;2022-09-09T06:41:00;99189.78;;;21.43
70668;BMP280;58242;51.250;-1.118;2022-09-09T06:43:27;99193.63;;;21.45
70668;BMP280;58242;51.250;-1.118;2022-09-09T06:45:57;99194.00;;;21.47
70668;BMP280;58242;51.250;-1.118;2022-09-09T06:48:23;99193.16;;;21.50
70668;BMP280;58242;51.250;-1.118;2022-09-09T06:50:48;99191.91;;;21.55
70668;BMP280;58242;51.250;-1.118;2022-09-09T06:53:18;99195.34;;;21.59
70668;BMP280;58242;51.250;-1.118;2022-09-09T06:55:46;99200.28;;;21.63
70668;BMP280;58242;51.250;-1.118;2022-09-09T06:58:13;99190.88;;;21.68
70668;BMP280;58242;51.250;-1.118;2022-09-09T07:00:38;99193.13;;;21.73
70668;BMP280;58242;51.250;-1.118;2022-09-09T07:03:04;99193.00;;;21.79
70668;BMP280;58242;51.250;-1.118;2022-09-09T07:05:29;99195.63;;;21.86
70668;BMP280;58242;51.250;-1.118;2022-09-09T07:07:54;99185.81;;;21.92
70668;BMP280;58242;51.250;-1.118;2022-09-09T07:10:20;99198.50;;;21.98
70668;BMP280;58242;51.250;-1.118;2022-09-09T07:12:50;99199.13;;;22.06
70668;BMP280;58242;51.250;-1.118;2022-09-09T07:15:16;99197.13;;;22.10
70668;BMP280;58242;51.250;-1.118;2022-09-09T07:17:44;99209.47;;;22.14
70668;BMP280;58242;51.250;-1.118;2022-09-09T07:20:09;99202.78;;;22.18
70668;BMP280;58242;51.250;-1.118;2022-09-09T07:22:34;99207.38;;;22.40
70668;BMP280;58242;51.250;-1.118;2022-09-09T07:25:00;99215.97;;;22.58
70668;BMP280;58242;51.250;-1.118;2022-09-09T07:27:27;99216.94;;;22.67
70668;BMP280;58242;51.250;-1.118;2022-09-09T07:29:52;99212.13;;;22.74
70668;BMP280;58242;51.250;-1.118;2022-09-09T07:32:19;99219.44;;;22.77
70668;BMP280;58242;51.250;-1.118;2022-09-09T07:34:45;99221.75;;;22.79
70668;BMP280;58242;51.250;-1.118;2022-09-09T07:37:12;99224.81;;;22.80
70668;BMP280;58242;51.250;-1.118;2022-09-09T07:39:38;99221.59;;;22.85
70668;BMP280;58242;51.250;-1.118;2022-09-09T07:42:04;99234.66;;;22.94
70668;BMP280;58242;51.250;-1.118;2022-09-09T07:44:30;99232.94;;;22.99
70668;BMP280;58242;51.250;-1.118;2022-09-09T07:46:57;99234.84;;;23.02
70668;BMP280;58242;51.250;-1.118;2022-09-09T07:49:22;99233.91;;;23.09
70668;BMP280;58242;51.250;-1.118;2022-09-09T07:51:48;99240.66;;;23.20
70668;BMP280;58242;51.250;-1.118;2022-09-09T07:54:16;99248.88;;;23.35
70668;BMP280;58242;51.250;-1.118;2022-09-09T07:56:45;99242.22;;;23.52
70668;BMP280;58242;51.250;-1.118;2022-09-09T07:59:12;99251.03;;;23.59
70668;BMP280;58242;51.250;-1.118;2022-09-09T08:01:49;99250.56;;;23.61
70668;BMP280;58242;51.250;-1.118;2022-09-09T08:04:19;99262.00;;;23.56
70668;BMP280;58242;51.250;-1.118;2022-09-09T08:06:50;99265.25;;;23.51
70668;BMP280;58242;51.250;-1.118;2022-09-09T08:09:18;99266.16;;;23.45
70668;BMP280;58242;51.250;-1.118;2022-09-09T08:11:44;99266.63;;;23.43
70668;BMP280;58242;51.250;-1.118;2022-09-09T08:14:10;99271.22;;;23.46
70668;BMP280;58242;51.250;-1.118;2022-09-09T08:16:39;99273.44;;;23.51
70668;BMP280;58242;51.250;-1.118;2022-09-09T08:19:06;99272.66;;;23.50
70668;BMP280;58242;51.250;-1.118;2022-09-09T08:21:33;99283.50;;;23.54
70668;BMP280;58242;51.250;-1.118;2022-09-09T08:24:00;99283.91;;;23.68
70668;BMP280;58242;51.250;-1.118;2022-09-09T08:26:30;99285.72;;;23.90
70668;BMP280;58242;51.250;-1.118;2022-09-09T08:28:57;99279.81;;;24.07
70668;BMP280;58242;51.250;-1.118;2022-09-09T08:31:28;99278.97;;;24.10
70668;BMP280;58242;51.250;-1.118;2022-09-09T08:33:55;99282.13;;;24.08
70668;BMP280;58242;51.250;-1.118;2022-09-09T08:36:22;99288.44;;;24.05
70668;BMP280;58242;51.250;-1.118;2022-09-09T08:38:50;99287.25;;;24.06
70668;BMP280;58242;51.250;-1.118;2022-09-09T08:43:43;99300.56;;;24.04
70668;BMP280;58242;51.250;-1.118;2022-09-09T08:46:24;99289.97;;;24.06
70668;BMP280;58242;51.250;-1.118;2022-09-09T08:48:58;99290.31;;;24.08
70668;BMP280;58242;51.250;-1.118;2022-09-09T08:51:27;99294.06;;;24.14
70668;BMP280;58242;51.250;-1.118;2022-09-09T08:53:58;99307.09;;;24.22
70668;BMP280;58242;51.250;-1.118;2022-09-09T08:56:26;99304.19;;;24.29
70668;BMP280;58242;51.250;-1.118;2022-09-09T08:58:54;99313.72;;;24.37
70668;BMP280;58242;51.250;-1.118;2022-09-09T09:01:33;99312.66;;;24.47
70668;BMP280;58242;51.250;-1.118;2022-09-09T09:04:26;99324.34;;;24.63
70668;BMP280;58242;51.250;-1.118;2022-09-09T09:06:57;99323.09;;;24.79
70668;BMP280;58242;51.250;-1.118;2022-09-09T09:09:32;99322.25;;;24.94
70668;BMP280;58242;51.250;-1.118;2022-09-09T09:12:00;99329.28;;;25.07
70668;BMP280;58242;51.250;-1.118;2022-09-09T09:14:32;99330.94;;;25.17
70668;BMP280;58242;51.250;-1.118;2022-09-09T09:17:08;99340.94;;;25.23
70668;BMP280;58242;51.250;-1.118;2022-09-09T09:19:39;99337.09;;;25.33
70668;BMP280;58242;51.250;-1.118;2022-09-09T09:22:21;99341.50;;;25.67
70668;BMP280;58242;51.250;-1.118;2022-09-09T09:27:34;99354.78;;;26.50
70668;BMP280;58242;51.250;-1.118;2022-09-09T09:30:15;99351.13;;;27.07
70668;BMP280;58242;51.250;-1.118;2022-09-09T09:32:54;99357.50;;;27.84
70668;BMP280;58242;51.250;-1.118;2022-09-09T09:35:20;99366.19;;;28.39
70668;BMP280;58242;51.250;-1.118;2022-09-09T09:37:47;99364.09;;;28.60
70668;BMP280;58242;51.250;-1.118;2022-09-09T09:40:15;99370.66;;;28.63
70668;BMP280;58242;51.250;-1.118;2022-09-09T09:42:58;99374.66;;;28.53
70668;BMP280;58242;51.250;-1.118;2022-09-09T09:45:40;99367.91;;;28.45
70668;BMP280;58242;51.250;-1.118;2022-09-09T09:48:09;99375.84;;;28.43
70668;BMP280;58242;51.250;-1.118;2022-09-09T09:51:08;99375.69;;;28.38
70668;BMP280;58242;51.250;-1.118;2022-09-09T09:53:29;99380.84;;;28.27
70668;BMP280;58242;51.250;-1.118;2022-09-09T09:55:57;99386.03;;;28.25
70668;BMP280;58242;51.250;-1.118;2022-09-09T09:58:23;99389.25;;;28.32
70668;BMP280;58242;51.250;-1.118;2022-09-09T10:00:51;99379.69;;;28.63
70668;BMP280;58242;51.250;-1.118;2022-09-09T10:03:35;99386.72;;;29.17
70668;BMP280;58242;51.250;-1.118;2022-09-09T10:06:05;99384.53;;;29.47
70668;BMP280;58242;51.250;-1.118;2022-09-09T10:08:34;99381.97;;;29.43
70668;BMP280;58242;51.250;-1.118;2022-09-09T10:13:56;99394.69;;;28.80
70668;BMP280;58242;51.250;-1.118;2022-09-09T10:16:41;99396.00;;;28.40
70668;BMP280;58242;51.250;-1.118;2022-09-09T10:19:13;99396.81;;;28.11
70668;BMP280;58242;51.250;-1.118;2022-09-09T10:22:28;99398.72;;;27.93
70668;BMP280;58242;51.250;-1.118;2022-09-09T10:24:58;99397.50;;;27.94
70668;BMP280;58242;51.250;-1.118;2022-09-09T10:30:16;99402.22;;;28.15
70668;BMP280;58242;51.250;-1.118;2022-09-09T10:33:13;99405.91;;;28.29
70668;BMP280;58242;51.250;-1.118;2022-09-09T10:35:59;99398.75;;;28.40
70668;BMP280;58242;51.250;-1.118;2022-09-09T10:39:04;99398.31;;;28.50
70668;BMP280;58242;51.250;-1.118;2022-09-09T10:41:44;99403.50;;;28.57
70668;BMP280;58242;51.250;-1.118;2022-09-09T10:44:16;99405.97;;;28.64
70668;BMP280;58242;51.250;-1.118;2022-09-09T10:55:18;99414.84;;;29.12
70668;BMP280;58242;51.250;-1.118;2022-09-09T11:00:17;99411.59;;;29.48
70668;BMP280;58242;51.250;-1.118;2022-09-09T11:02:43;99405.41;;;29.70
70668;BMP280;58242;51.250;-1.118;2022-09-09T11:05:15;99407.41;;;29.79
70668;BMP280;58242;51.250;-1.118;2022-09-09T11:10:23;99407.44;;;29.61
70668;BMP280;58242;51.250;-1.118;2022-09-09T11:12:52;99407.97;;;30.23
70668;BMP280;58242;51.250;-1.118;2022-09-09T11:15:23;99405.63;;;30.99
70668;BMP280;58242;51.250;-1.118;2022-09-09T11:17:56;99404.81;;;31.07
70668;BMP280;58242;51.250;-1.118;2022-09-09T11:20:25;99411.13;;;30.85
70668;BMP280;58242;51.250;-1.118;2022-09-09T11:23:04;99420.88;;;30.49
70668;BMP280;58242;51.250;-1.118;2022-09-09T11:25:35;99416.53;;;30.25
70668;BMP280;58242;51.250;-1.118;2022-09-09T11:41:08;99427.09;;;33.72
70668;BMP280;58242;51.250;-1.118;2022-09-09T11:43:53;99421.59;;;34.78
70668;BMP280;58242;51.250;-1.118;2022-09-09T11:46:32;99409.44;;;35.59
70668;BMP280;58242;51.250;-1.118;2022-09-09T11:49:04;99415.50;;;35.53
70668;BMP280;58242;51.250;-1.118;2022-09-09T11:51:31;99434.00;;;34.88
70668;BMP280;58242;51.250;-1.118;2022-09-09T11:53:58;99429.13;;;34.02
70668;BMP280;58242;51.250;-1.118;2022-09-09T11:56:32;99434.34;;;33.20
70668;BMP280;58242;51.250;-1.118;2022-09-09T12:01:39;99436.50;;;31.77
70668;BMP280;58242;51.250;-1.118;2022-09-09T12:04:37;99436.72;;;31.08
70668;BMP280;58242;51.250;-1.118;2022-09-09T12:09:43;99448.78;;;30.10
70668;BMP280;58242;51.250;-1.118;2022-09-09T12:17:26;99457.69;;;28.86
70668;BMP280;58242;51.250;-1.118;2022-09-09T12:23:25;99462.91;;;28.08
70668;BMP280;58242;51.250;-1.118;2022-09-09T12:25:58;99455.28;;;27.82
70668;BMP280;58242;51.250;-1.118;2022-09-09T12:31:10;99456.09;;;27.41
70668;BMP280;58242;51.250;-1.118;2022-09-09T12:33:43;99460.56;;;27.26
70668;BMP280;58242;51.250;-1.118;2022-09-09T12:36:16;99460.19;;;27.15
70668;BMP280;58242;51.250;-1.118;2022-09-09T12:38:44;99461.66;;;27.08
70668;BMP280;58242;51.250;-1.118;2022-09-09T12:41:36;99459.25;;;26.97
70668;BMP280;58242;51.250;-1.118;2022-09-09T12:44:08;99458.13;;;26.95
70668;BMP280;58242;51.250;-1.118;2022-09-09T12:46:39;99455.66;;;26.88
70668;BMP280;58242;51.250;-1.118;2022-09-09T12:49:28;99465.31;;;26.80
70668;BMP280;58242;51.250;-1.118;2022-09-09T12:51:56;99463.91;;;26.76
70668;BMP280;58242;51.250;-1.118;2022-09-09T12:54:22;99462.91;;;26.82
70668;BMP280;58242;51.250;-1.118;2022-09-09T12:56:49;99468.78;;;27.05
70668;BMP280;58242;51.250;-1.118;2022-09-09T12:59:42;99468.28;;;27.19
70668;BMP280;58242;51.250;-1.118;2022-09-09T13:02:23;99458.78;;;27.32
70668;BMP280;58242;51.250;-1.118;2022-09-09T13:04:50;99452.97;;;27.51
70668;BMP280;58242;51.250;-1.118;2022-09-09T13:07:17;99463.66;;;27.70
70668;BMP280;58242;51.250;-1.118;2022-09-09T13:09:44;99463.69;;;27.79
70668;BMP280;58242;51.250;-1.118;2022-09-09T13:12:15;99464.94;;;27.86
70668;BMP280;58242;51.250;-1.118;2022-09-09T13:14:44;99463.44;;;27.94
70668;BMP280;58242;51.250;-1.118;2022-09-09T13:17:18;99450.34;;;27.98
70668;BMP280;58242;51.250;-1.118;2022-09-09T13:19:45;99456.78;;;28.04
70668;BMP280;58242;51.250;-1.118;2022-09-09T13:27:33;99467.91;;;28.30
70668;BMP280;58242;51.250;-1.118;2022-09-09T13:30:00;99465.81;;;28.43
70668;BMP280;58242;51.250;-1.118;2022-09-09T13:32:26;99468.00;;;28.56
70668;BMP280;58242;51.250;-1.118;2022-09-09T13:34:57;99463.41;;;28.62
70668;BMP280;58242;51.250;-1.118;2022-09-09T13:37:37;99474.13;;;28.60
70668;BMP280;58242;51.250;-1.118;2022-09-09T13:40:05;99475.22;;;28.71
70668;BMP280;58242;51.250;-1.118;2022-09-09T13:42:39;99477.41;;;29.11
70668;BMP280;58242;51.250;-1.118;2022-09-09T13:45:19;99471.81;;;29.99
70668;BMP280;58242;51.250;-1.118;2022-09-09T13:47:48;99473.88;;;30.98
70668;BMP280;58242;51.250;-1.118;2022-09-09T13:50:27;99473.38;;;31.60
70668;BMP280;58242;51.250;-1.118;2022-09-09T13:52:55;99473.38;;;31.60
70668;BMP280;58242;51.250;-1.118;2022-09-09T13:55:24;99474.06;;;31.83
70668;BMP280;58242;51.250;-1.118;2022-09-09T13:57:58;99465.78;;;32.11
70668;BMP280;58242;51.250;-1.118;2022-09-09T14:00:25;99462.53;;;32.60
70668;BMP280;58242;51.250;-1.118;2022-09-09T14:02:50;99487.69;;;33.15
70668;BMP280;58242;51.250;-1.118;2022-09-09T14:05:19;99477.81;;;33.53
70668;BMP280;58242;51.250;-1.118;2022-09-09T14:07:44;99477.66;;;33.86
70668;BMP280;58242;51.250;-1.118;2022-09-09T14:10:11;99475.13;;;34.13
70668;BMP280;58242;51.250;-1.118;2022-09-09T14:12:36;99485.16;;;34.05
70668;BMP280;58242;51.250;-1.118;2022-09-09T14:15:04;99482.69;;;33.83
70668;BMP280;58242;51.250;-1.118;2022-09-09T14:17:30;99486.69;;;33.82
70668;BMP280;58242;51.250;-1.118;2022-09-09T14:19:57;99479.66;;;34.11
70668;BMP280;58242;51.250;-1.118;2022-09-09T14:22:22;99483.13;;;34.06
70668;BMP280;58242;51.250;-1.118;2022-09-09T14:24:48;99477.44;;;33.90
70668;BMP280;58242;51.250;-1.118;2022-09-09T14:27:14;99478.53;;;33.73
70668;BMP280;58242;51.250;-1.118;2022-09-09T14:29:39;99471.69;;;33.68
70668;BMP280;58242;51.250;-1.118;2022-09-09T14:32:05;99478.03;;;33.50
70668;BMP280;58242;51.250;-1.118;2022-09-09T14:34:30;99477.56;;;33.12
70668;BMP280;58242;51.250;-1.118;2022-09-09T14:36:57;99475.63;;;32.98
70668;BMP280;58242;51.250;-1.118;2022-09-09T14:39:23;99470.81;;;32.80
70668;BMP280;58242;51.250;-1.118;2022-09-09T14:41:48;99476.13;;;32.44
70668;BMP280;58242;51.250;-1.118;2022-09-09T14:44:13;99476.75;;;32.06
70668;BMP280;58242;51.250;-1.118;2022-09-09T14:46:38;99471.75;;;31.67
70668;BMP280;58242;51.250;-1.118;2022-09-09T14:49:04;99474.84;;;31.32
70668;BMP280;58242;51.250;-1.118;2022-09-09T14:51:29;99480.00;;;31.02
70668;BMP280;58242;51.250;-1.118;2022-09-09T14:53:57;99476.53;;;30.70
70668;BMP280;58242;51.250;-1.118;2022-09-09T14:56:26;99472.28;;;30.38
70668;BMP280;58242;51.250;-1.118;2022-09-09T14:58:56;99472.84;;;30.01
70668;BMP280;58242;51.250;-1.118;2022-09-09T15:01:21;99473.69;;;29.67
70668;BMP280;58242;51.250;-1.118;2022-09-09T15:03:52;99488.44;;;29.37
70668;BMP280;58242;51.250;-1.118;2022-09-09T15:06:19;99476.94;;;29.13
70668;BMP280;58242;51.250;-1.118;2022-09-09T15:08:46;99486.88;;;29.19
70668;BMP280;58242;51.250;-1.118;2022-09-09T15:11:12;99479.69;;;29.13
70668;BMP280;58242;51.250;-1.118;2022-09-09T15:13:39;99492.22;;;28.96
70668;BMP280;58242;51.250;-1.118;2022-09-09T15:18:34;99492.09;;;28.44
70668;BMP280;58242;51.250;-1.118;2022-09-09T15:21:02;99485.16;;;28.22
70668;BMP280;58242;51.250;-1.118;2022-09-09T15:23:33;99488.22;;;28.03
70668;BMP280;58242;51.250;-1.118;2022-09-09T15:25:59;99493.50;;;27.89
70668;BMP280;58242;51.250;-1.118;2022-09-09T15:28:24;99496.34;;;27.77
70668;BMP280;58242;51.250;-1.118;2022-09-09T15:30:51;99491.25;;;27.66
70668;BMP280;58242;51.250;-1.118;2022-09-09T15:33:21;99493.13;;;27.57
70668;BMP280;58242;51.250;-1.118;2022-09-09T15:35:47;99495.00;;;27.60
70668;BMP280;58242;51.250;-1.118;2022-09-09T15:38:12;99496.75;;;27.66
70668;BMP280;58242;51.250;-1.118;2022-09-09T15:40:38;99502.97;;;27.67
70668;BMP280;58242;51.250;-1.118;2022-09-09T15:43:05;99498.50;;;27.61
70668;BMP280;58242;51.250;-1.118;2022-09-09T15:45:32;99514.75;;;27.55
70668;BMP280;58242;51.250;-1.118;2022-09-09T15:48:01;99509.88;;;27.50
70668;BMP280;58242;51.250;-1.118;2022-09-09T15:50:26;99517.00;;;27.48
70668;BMP280;58242;51.250;-1.118;2022-09-09T15:52:52;99517.13;;;27.45
70668;BMP280;58242;51.250;-1.118;2022-09-09T15:55:19;99514.97;;;27.40